ěÝzenÝ letovÚho provozu ╚eskÚ republiky
Letiste: LKPJ Aktualizace: 26.10.2020 23:30:25  UTC
 METAR LKPJ 26.10. 23:30 ...
METAR LKPJ 262330Z AUTO 18008KT 9999 FEW015 OVC042 11/09 Q1008=